Time;durP1;ratioP1;P1;durP2;ratioP2;P2;SDS_P1;SDS_P2;PMS_P1;PMS_P2;Temp;Humidity;BMP_temperature;BMP_pressure;BME280_temperature;BME280_humidity;BME280_pressure;Samples;Min_cycle;Max_cycle;Signal;HPM_P1;HPM_P2
2023/06/05 00:00:28;;;;;;;9.53;4.00;;;;;;;-141.97;80.95;47622.88;5073033;28;20183;-82
2023/06/05 00:02:53;;;;;;;8.30;3.83;;;;;;;-141.97;81.12;47609.41;5073117;28;20165;-82
2023/06/05 00:05:19;;;;;;;7.63;3.80;;;;;;;-141.97;81.50;47628.63;5071620;28;20173;-81
2023/06/05 00:07:44;;;;;;;8.93;4.00;;;;;;;-141.97;81.90;47655.53;5072139;28;20169;-82
2023/06/05 00:10:10;;;;;;;8.93;4.23;;;;;;;-141.97;82.06;47574.81;5072268;28;20218;-82
2023/06/05 00:12:36;;;;;;;7.63;4.00;;;;;;;-141.97;81.81;47649.78;5070867;28;20257;-82
2023/06/05 00:15:03;;;;;;;9.30;4.07;;;;;;;-141.97;82.55;47676.69;5072667;28;20347;-83
2023/06/05 00:17:30;;;;;;;10.23;4.33;;;;;;;-141.97;82.83;47742.03;5072661;28;20188;-81
2023/06/05 00:19:58;;;;;;;9.23;4.10;;;;;;;-141.97;83.39;47570.97;5072406;28;20176;-83
2023/06/05 00:22:23;;;;;;;9.63;4.47;;;;;;;-141.97;82.93;47657.47;5072318;28;20153;-82
2023/06/05 00:24:49;;;;;;;11.13;4.40;;;;;;;-141.97;82.79;47557.53;5071302;28;20187;-82
2023/06/05 00:27:14;;;;;;;9.23;3.57;;;;;;;-141.97;82.86;47738.19;5071812;28;20580;-83
2023/06/05 00:29:40;;;;;;;10.27;3.80;;;;;;;-141.97;82.93;47630.56;5072140;28;20189;-82
2023/06/05 00:32:05;;;;;;;9.53;4.20;;;;;;;-141.97;82.82;47665.16;5071925;28;20216;-82
2023/06/05 00:34:30;;;;;;;9.03;4.13;;;;;;;-141.97;82.91;47626.72;5072580;28;20156;-81
2023/06/05 00:36:58;;;;;;;8.03;3.90;;;;;;;-141.97;82.47;47649.78;5071961;28;20160;-82
2023/06/05 00:39:23;;;;;;;11.87;3.63;;;;;;;-141.97;81.34;47686.31;5071468;28;20180;-82
2023/06/05 00:41:49;;;;;;;10.07;4.00;;;;;;;-141.97;80.86;47694.00;5072016;28;20228;-82
2023/06/05 00:44:14;;;;;;;7.90;3.70;;;;;;;-141.97;81.24;47634.41;5072267;28;20175;-82
2023/06/05 00:46:41;;;;;;;11.27;3.80;;;;;;;-141.97;81.50;47642.09;5071959;28;20169;-82
2023/06/05 00:49:07;;;;;;;7.83;3.90;;;;;;;-141.97;81.39;47630.56;5073138;28;20180;-82
2023/06/05 00:51:33;;;;;;;9.77;3.90;;;;;;;-141.97;80.49;47665.16;5075536;28;20245;-82
2023/06/05 00:54:00;;;;;;;10.40;4.00;;;;;;;-141.97;80.39;47651.69;5086366;28;20168;-83
2023/06/05 00:56:25;;;;;;;10.40;3.70;;;;;;;-141.97;80.39;47695.91;5095797;28;20196;-82
2023/06/05 00:58:53;;;;;;;9.17;3.80;;;;;;;-141.97;80.18;47661.31;5075607;28;20243;-81
2023/06/05 01:01:20;;;;;;;8.83;3.60;;;;;;;-141.97;79.84;47682.47;5075403;28;20168;-82
2023/06/05 01:03:47;;;;;;;8.43;3.57;;;;;;;-141.97;79.49;47669.00;5076324;28;20168;-81
2023/06/05 01:06:16;;;;;;;7.73;3.90;;;;;;;-141.97;78.88;47615.19;5074752;28;20163;-82
2023/06/05 01:08:42;;;;;;;8.40;3.90;;;;;;;-141.97;79.69;47599.81;5073458;28;20633;-81
2023/06/05 01:11:19;;;;;;;9.87;3.90;;;;;;;-141.97;79.18;47665.16;5075522;28;20161;-82
2023/06/05 01:13:54;;;;;;;8.50;4.20;;;;;;;-141.97;78.13;47665.16;5075253;28;20187;-82
2023/06/05 01:16:24;;;;;;;12.23;4.03;;;;;;;-141.97;78.02;47617.09;5074721;28;20164;-83
2023/06/05 01:18:49;;;;;;;11.23;4.10;;;;;;;-141.97;78.16;47630.56;5075253;28;20625;-82
2023/06/05 01:21:14;;;;;;;9.90;4.23;;;;;;;-141.97;77.86;47592.13;5075222;28;20145;-82
2023/06/05 01:23:44;;;;;;;8.23;3.80;;;;;;;-141.97;77.53;47640.16;5074672;28;20242;-82
2023/06/05 01:26:21;;;;;;;8.33;3.40;;;;;;;-141.97;77.35;47636.31;5075345;28;20156;-82
2023/06/05 01:28:49;;;;;;;12.23;4.10;;;;;;;-141.97;77.38;47661.31;5074825;28;20168;-82
2023/06/05 01:31:19;;;;;;;12.17;4.50;;;;;;;-141.97;77.52;47642.09;5075457;28;20246;-82
2023/06/05 01:33:56;;;;;;;9.40;4.30;;;;;;;-141.97;77.08;47645.94;5075391;28;20160;-82
2023/06/05 01:36:23;;;;;;;8.77;3.90;;;;;;;-141.97;77.35;47640.16;5074690;28;20194;-81
2023/06/05 01:38:51;;;;;;;10.90;4.03;;;;;;;-141.97;77.21;47651.69;5074984;28;20688;-81
2023/06/05 01:41:18;;;;;;;11.30;3.97;;;;;;;-141.97;77.28;47642.09;5073417;28;20358;-82
2023/06/05 01:43:46;;;;;;;12.17;4.10;;;;;;;-141.97;77.08;47603.66;5074726;28;20688;-81
2023/06/05 01:46:13;;;;;;;12.73;3.90;;;;;;;-141.97;76.80;47624.78;5074425;28;20226;-81
2023/06/05 01:48:42;;;;;;;18.30;10.37;;;;;;;-141.97;76.56;47580.59;5074833;28;20173;-81
2023/06/05 01:51:08;;;;;;;9.00;3.80;;;;;;;-141.97;76.41;47688.22;5074757;28;20183;-82
2023/06/05 01:53:33;;;;;;;11.10;4.17;;;;;;;-141.97;76.62;47620.94;5074940;28;20192;-81
2023/06/05 01:55:59;;;;;;;11.97;4.10;;;;;;;-141.97;76.45;47665.16;5076260;28;20172;-81
2023/06/05 01:58:26;;;;;;;10.10;4.60;;;;;;;-141.97;76.85;47611.34;5074914;28;20170;-81
2023/06/05 02:00:56;;;;;;;18.93;5.47;;;;;;;-141.97;77.49;47665.16;5075451;28;20191;-82
2023/06/05 02:03:22;;;;;;;13.67;4.43;;;;;;;-141.97;79.14;47607.50;5075246;28;20153;-82
2023/06/05 02:05:48;;;;;;;9.93;4.63;;;;;;;-141.97;80.79;47603.66;5075359;28;20488;-81
2023/06/05 02:08:19;;;;;;;11.07;4.90;;;;;;;-141.97;81.66;47620.94;5074830;28;20157;-81
2023/06/05 02:10:47;;;;;;;10.60;4.80;;;;;;;-141.97;81.77;47619.03;5075125;28;20156;-81
2023/06/05 02:13:15;;;;;;;6.87;4.40;;;;;;;-141.97;81.11;47580.59;5074880;28;20562;-81
2023/06/05 02:15:41;;;;;;;12.23;4.70;;;;;;;-141.97;80.56;47624.78;5075357;28;20240;-81
2023/06/05 02:18:07;;;;;;;10.87;5.13;;;;;;;-141.97;80.50;47611.34;5075130;28;20188;-82
2023/06/05 02:20:35;;;;;;;10.50;4.80;;;;;;;-141.97;81.04;47776.63;5074485;28;20168;-81
2023/06/05 02:23:00;;;;;;;15.87;7.07;;;;;;;-141.97;81.06;47592.13;5075884;28;20137;-81
2023/06/05 02:25:26;;;;;;;14.80;6.87;;;;;;;-141.97;80.57;47784.34;5073760;28;20182;-81
2023/06/05 02:27:52;;;;;;;8.50;4.67;;;;;;;-141.97;80.55;47757.41;5074462;28;20165;-81
2023/06/05 02:30:18;;;;;;;14.97;5.30;;;;;;;-141.97;80.66;47553.69;5074097;28;20243;-82
2023/06/05 02:32:43;;;;;;;11.23;4.40;;;;;;;-141.97;80.16;47603.66;5074223;28;20197;-82
2023/06/05 02:35:10;;;;;;;7.67;4.40;;;;;;;-141.97;80.14;47684.38;5074001;28;20248;-81
2023/06/05 02:37:43;;;;;;;9.33;4.87;;;;;;;-141.97;80.82;47669.00;5074087;28;20183;-81
2023/06/05 02:40:10;;;;;;;13.33;5.70;;;;;;;-141.97;80.57;47669.00;5074173;28;20161;-81
2023/06/05 02:42:36;;;;;;;11.40;5.03;;;;;;;-141.97;80.94;47588.28;5072811;28;20236;-81
2023/06/05 02:45:03;;;;;;;12.00;5.80;;;;;;;-141.97;80.30;47674.78;5073862;28;20161;-82
2023/06/05 02:47:29;;;;;;;12.67;4.33;;;;;;;-141.97;79.50;47638.25;5074349;28;20156;-81
2023/06/05 02:49:55;;;;;;;13.53;4.60;;;;;;;-141.97;78.21;47597.88;5074580;28;20621;-82
2023/06/05 02:52:21;;;;;;;11.07;4.47;;;;;;;-141.97;78.22;47661.31;5073929;28;20220;-82
2023/06/05 02:54:47;;;;;;;11.03;4.47;;;;;;;-141.97;77.76;47642.09;5074158;28;20552;-82
2023/06/05 02:57:12;;;;;;;9.07;4.30;;;;;;;-141.97;77.92;47678.63;5073990;28;20196;-82
2023/06/05 02:59:39;;;;;;;8.97;4.30;;;;;;;-141.97;77.78;47820.84;5074075;28;20157;-85
2023/06/05 03:02:08;;;;;;;10.13;4.40;;;;;;;-141.97;77.54;47667.06;5073592;28;20153;-82
2023/06/05 03:04:33;;;;;;;9.93;4.50;;;;;;;-141.97;77.55;47567.13;5072928;28;20169;-81
2023/06/05 03:07:02;;;;;;;9.80;4.03;;;;;;;-141.97;77.49;47692.06;5073875;28;20652;-81
2023/06/05 03:09:28;;;;;;;10.80;4.13;;;;;;;-141.97;77.34;47584.44;5073754;28;20210;-82
2023/06/05 03:11:54;;;;;;;12.20;4.67;;;;;;;-141.97;77.21;47657.47;5073279;28;20222;-82
2023/06/05 03:14:19;;;;;;;13.50;4.47;;;;;;;-141.97;77.44;47680.53;5074296;28;20161;-83
2023/06/05 03:16:45;;;;;;;10.10;4.80;;;;;;;-141.97;77.53;47572.91;5090425;28;20169;-82
2023/06/05 03:19:11;;;;;;;13.60;4.77;;;;;;;-141.97;76.63;47630.56;5087487;28;20662;-82
2023/06/05 03:21:39;;;;;;;7.40;4.23;;;;;;;-141.97;76.45;47672.84;5073356;28;20216;-81
2023/06/05 03:24:10;;;;;;;9.10;4.57;;;;;;;-141.97;76.49;47640.16;5074095;28;20156;-81
2023/06/05 03:26:36;;;;;;;16.17;4.50;;;;;;;-141.97;75.79;47711.28;5074154;28;20641;-82
2023/06/05 03:29:02;;;;;;;12.30;4.50;;;;;;;-141.97;76.48;47680.53;5074906;28;20165;-82
2023/06/05 03:31:27;;;;;;;11.93;4.27;;;;;;;-141.97;75.71;47632.47;5073650;28;20246;-81
2023/06/05 03:33:53;;;;;;;12.83;4.77;;;;;;;-141.97;75.21;47661.31;5073457;28;20644;-82
2023/06/05 03:36:18;;;;;;;12.13;4.77;;;;;;;-141.97;75.07;47622.88;5073662;28;20249;-83
2023/06/05 03:38:44;;;;;;;9.63;4.17;;;;;;;-141.97;74.20;47634.41;5073881;28;20225;-83
2023/06/05 03:41:10;;;;;;;6.77;3.80;;;;;;;-141.97;73.23;47651.69;5073674;28;20216;-82
2023/06/05 03:43:36;;;;;;;8.67;3.60;;;;;;;-141.97;72.78;47630.56;5073572;28;20164;-82
2023/06/05 03:46:02;;;;;;;13.43;3.90;;;;;;;-141.97;72.68;47665.16;5073600;28;20294;-82
2023/06/05 03:48:27;;;;;;;8.47;3.63;;;;;;;-141.97;72.05;47695.91;5073075;28;20173;-82
2023/06/05 03:50:53;;;;;;;10.90;4.07;;;;;;;-141.97;71.86;47619.03;5073090;28;20152;-83
2023/06/05 03:53:19;;;;;;;7.60;4.00;;;;;;;-141.97;71.60;47703.59;5073696;28;20181;-81
2023/06/05 03:55:49;;;;;;;6.80;3.60;;;;;;;-141.97;70.57;47674.78;5073953;28;20206;-81
2023/06/05 03:58:16;;;;;;;12.70;4.03;;;;;;;-141.97;70.72;47672.84;5072572;28;20176;-82
2023/06/05 04:00:42;;;;;;;9.07;3.80;;;;;;;-141.97;70.21;47692.06;5072862;28;20168;-82
2023/06/05 04:03:10;;;;;;;11.13;4.10;;;;;;;-141.97;69.89;47649.78;5073111;28;20153;-82
2023/06/05 04:05:37;;;;;;;9.07;3.90;;;;;;;-141.97;69.46;47632.47;5072717;28;20237;-81
2023/06/05 04:08:03;;;;;;;13.40;4.00;;;;;;;-141.97;69.32;47676.69;5073229;28;20168;-83
2023/06/05 04:10:29;;;;;;;13.00;4.60;;;;;;;-141.97;69.34;47640.16;5073073;28;20161;-81
2023/06/05 04:12:55;;;;;;;11.37;3.83;;;;;;;-141.97;68.94;47676.69;5073846;28;20184;-82
2023/06/05 04:15:20;;;;;;;11.37;3.53;;;;;;;-141.97;68.19;47672.84;5071939;28;20633;-81
2023/06/05 04:17:46;;;;;;;9.83;3.53;;;;;;;-141.97;67.40;47661.31;5073130;28;20566;-81
2023/06/05 04:20:14;;;;;;;15.40;3.80;;;;;;;-141.97;67.04;47663.22;5073574;28;20153;-83
2023/06/05 04:22:40;;;;;;;11.57;3.80;;;;;;;-141.97;66.74;47570.97;5072120;28;20171;-82
2023/06/05 04:25:06;;;;;;;7.80;3.90;;;;;;;-141.97;66.94;47636.31;5075781;28;20265;-82
2023/06/05 04:27:31;;;;;;;9.60;3.57;;;;;;;-141.97;66.53;47622.88;5077064;28;20185;-81
2023/06/05 04:29:57;;;;;;;11.33;3.60;;;;;;;-141.97;65.90;47584.44;5078785;28;20161;-82
2023/06/05 04:32:22;;;;;;;6.90;4.27;;;;;;;-141.97;64.79;47638.25;5077361;28;20188;-80
2023/06/05 04:34:48;;;;;;;10.17;3.97;;;;;;;-141.97;64.09;47670.91;5081828;28;20169;-82
2023/06/05 04:37:13;;;;;;;11.60;4.10;;;;;;;-141.97;62.63;47570.97;5077842;28;20168;-82
2023/06/05 04:39:39;;;;;;;8.67;3.63;;;;;;;-141.97;62.40;47565.22;5077611;28;20172;-82
2023/06/05 04:42:04;;;;;;;12.43;3.43;;;;;;;-141.97;62.42;47620.94;5076778;28;20232;-82
2023/06/05 04:44:31;;;;;;;10.40;3.83;;;;;;;-141.97;63.16;47653.63;5079328;28;20247;-82
2023/06/05 04:46:56;;;;;;;10.57;3.97;;;;;;;-141.97;62.91;47799.72;5078133;28;20161;-82
2023/06/05 04:49:26;;;;;;;10.40;4.70;;;;;;;-141.97;62.67;47626.72;5078344;28;20808;-82
2023/06/05 04:51:53;;;;;;;16.70;4.20;;;;;;;-141.97;62.24;47645.94;5076665;28;20185;-81
2023/06/05 04:54:19;;;;;;;12.53;5.17;;;;;;;-141.97;62.29;47542.16;5078145;28;20214;-80
2023/06/05 04:56:45;;;;;;;10.50;4.57;;;;;;;-141.97;61.39;47582.50;5081601;28;20648;-81
2023/06/05 04:59:11;;;;;;;10.10;5.63;;;;;;;-141.97;60.74;47657.47;5079183;28;20248;-83
2023/06/05 05:01:36;;;;;;;12.90;6.43;;;;;;;-141.97;61.15;47657.47;5079036;28;20197;-82
2023/06/05 05:04:02;;;;;;;10.70;5.40;;;;;;;-141.97;61.39;47570.97;5077557;28;20173;-82
2023/06/05 05:06:28;;;;;;;10.97;4.90;;;;;;;-141.97;61.04;47634.41;5077358;28;20165;-82
2023/06/05 05:08:53;;;;;;;12.73;5.03;;;;;;;-141.97;60.09;47640.16;5075269;28;20172;-82
2023/06/05 05:11:19;;;;;;;8.73;4.97;;;;;;;-141.97;59.82;47645.94;5076744;28;20163;-82
2023/06/05 05:13:45;;;;;;;10.60;5.53;;;;;;;-141.97;59.59;47619.03;5076309;28;20161;-82
2023/06/05 05:16:10;;;;;;;16.87;7.23;;;;;;;-141.97;59.10;47788.19;5076880;28;20223;-81
2023/06/05 05:18:40;;;;;;;11.67;5.70;;;;;;;-141.97;59.53;47634.41;5077618;28;20172;-82
2023/06/05 05:21:06;;;;;;;11.13;5.90;;;;;;;-141.97;59.95;47642.09;5079484;28;20169;-82
2023/06/05 05:23:32;;;;;;;14.03;6.33;;;;;;;-141.97;60.18;47607.50;5080378;28;20164;-83
2023/06/05 05:25:57;;;;;;;13.27;6.47;;;;;;;-141.97;60.05;47619.03;5079435;28;20613;-82
2023/06/05 05:28:23;;;;;;;16.40;7.60;;;;;;;-141.97;59.86;47642.09;5076270;28;20171;-82
2023/06/05 05:30:48;;;;;;;10.80;6.50;;;;;;;-141.97;59.79;47626.72;5075224;28;20161;-82
2023/06/05 05:33:14;;;;;;;10.40;6.23;;;;;;;-141.97;59.46;47609.41;5075357;28;20280;-83
2023/06/05 05:35:40;;;;;;;12.80;5.90;;;;;;;-141.97;59.71;47595.97;5075177;28;20650;-82
2023/06/05 05:38:06;;;;;;;11.70;6.30;;;;;;;-141.97;59.75;47582.50;5085987;28;20161;-82
2023/06/05 05:40:31;;;;;;;13.67;5.90;;;;;;;-141.97;59.77;47565.22;5094481;28;20176;-82
2023/06/05 05:42:57;;;;;;;12.50;5.90;;;;;;;-141.97;59.86;47574.81;5073680;28;20165;-82
2023/06/05 05:45:22;;;;;;;12.90;6.80;;;;;;;-141.97;60.09;47546.00;5075307;28;20251;-83
2023/06/05 05:47:47;;;;;;;12.63;6.20;;;;;;;-141.97;59.66;47619.03;5074856;28;20165;-82
2023/06/05 05:50:13;;;;;;;18.43;6.50;;;;;;;-141.97;59.29;47638.25;5075955;28;20169;-85
2023/06/05 05:52:38;;;;;;;15.67;6.50;;;;;;;-141.97;58.63;47801.63;5073814;28;20599;-83
2023/06/05 05:55:04;;;;;;;17.03;7.20;;;;;;;-141.97;58.58;47553.69;5073414;28;20545;-83
2023/06/05 05:57:30;;;;;;;21.30;7.00;;;;;;;-141.97;57.83;47530.59;5073027;28;20562;-83
2023/06/05 05:59:55;;;;;;;21.33;7.17;;;;;;;-141.97;58.36;47536.38;5074738;28;20164;-82
2023/06/05 06:02:21;;;;;;;18.60;6.70;;;;;;;-141.97;58.52;47638.25;5074248;28;20675;-82
2023/06/05 06:04:48;;;;;;;17.47;7.60;;;;;;;-141.97;58.33;47572.91;5073784;28;20739;-83
2023/06/05 06:07:13;;;;;;;17.77;7.80;;;;;;;-141.97;58.07;47630.56;5073998;28;20205;-83
2023/06/05 06:09:40;;;;;;;13.47;7.50;;;;;;;-141.97;59.16;47765.09;5073926;28;20239;-84
2023/06/05 06:12:07;;;;;;;21.30;7.67;;;;;;;-141.97;59.01;47490.25;5074153;28;20212;-83
2023/06/05 06:14:33;;;;;;;22.17;8.60;;;;;;;-141.97;58.91;47661.31;5073844;28;20157;-83
2023/06/05 06:16:59;;;;;;;15.17;7.63;;;;;;;-141.97;58.32;47809.31;5073013;28;20168;-83
2023/06/05 06:19:27;;;;;;;14.37;7.87;;;;;;;-141.97;58.10;47584.44;5073876;28;20624;-84
2023/06/05 06:21:53;;;;;;;14.50;8.13;;;;;;;-141.97;58.91;47522.91;5074103;28;20207;-83
2023/06/05 06:24:22;;;;;;;16.27;8.63;;;;;;;-141.97;59.43;47651.69;5073478;28;20218;-83
2023/06/05 06:26:48;;;;;;;15.20;8.03;;;;;;;-141.97;60.78;47622.88;5073401;28;20160;-83
2023/06/05 06:29:20;;;;;;;15.80;8.63;;;;;;;-141.97;62.08;47799.72;5073455;28;20212;-83
2023/06/05 06:31:46;;;;;;;18.00;9.03;;;;;;;-141.97;62.21;47653.63;5073588;28;20287;-83
2023/06/05 06:34:12;;;;;;;19.60;9.07;;;;;;;-141.97;60.46;47634.41;5073425;28;20551;-84
2023/06/05 06:36:40;;;;;;;17.50;9.03;;;;;;;-141.97;59.48;47603.66;5073613;28;20165;-84
2023/06/05 06:39:09;;;;;;;16.80;9.70;;;;;;;-141.97;60.39;47617.09;5073109;28;20232;-83
2023/06/05 06:41:36;;;;;;;22.00;9.83;;;;;;;-141.97;59.95;47584.44;5072110;28;20228;-81
2023/06/05 06:44:02;;;;;;;17.60;10.03;;;;;;;-141.97;59.58;47592.13;5073312;28;20172;-82
2023/06/05 06:46:28;;;;;;;19.83;9.30;;;;;;;-141.97;58.56;47599.81;5072214;28;20165;-82
2023/06/05 06:48:53;;;;;;;17.40;9.60;;;;;;;-141.97;57.04;47624.78;5073541;28;20163;-82
2023/06/05 06:51:18;;;;;;;19.70;10.03;;;;;;;-141.97;57.95;47497.94;5072412;28;20186;-82
2023/06/05 06:53:44;;;;;;;18.47;10.03;;;;;;;-141.97;59.86;47611.34;5071881;28;20647;-83
2023/06/05 06:56:09;;;;;;;18.70;10.53;;;;;;;-141.97;60.01;47747.81;5073127;28;20169;-84
2023/06/05 06:58:36;;;;;;;16.50;8.57;;;;;;;-141.97;58.36;47792.03;5071635;28;20172;-81
2023/06/05 07:01:03;;;;;;;20.57;9.03;;;;;;;-141.97;59.27;47753.56;5072171;28;20247;-82
2023/06/05 07:03:28;;;;;;;18.90;10.33;;;;;;;-141.97;60.68;47574.81;5073056;28;20176;-82
2023/06/05 07:05:54;;;;;;;20.03;10.27;;;;;;;-141.97;60.37;47582.50;5072768;28;20547;-82
2023/06/05 07:08:19;;;;;;;19.37;10.37;;;;;;;-141.97;60.27;47772.78;5072644;28;20220;-82
2023/06/05 07:10:45;;;;;;;23.00;11.67;;;;;;;-141.97;59.88;47628.63;5072842;28;20165;-83
2023/06/05 07:13:10;;;;;;;19.47;11.50;;;;;;;-141.97;59.77;47695.91;5072956;28;20189;-83
2023/06/05 07:15:36;;;;;;;21.70;11.50;;;;;;;-141.97;58.91;47586.34;5072339;28;20168;-84
2023/06/05 07:18:01;;;;;;;23.60;12.37;;;;;;;-141.97;59.21;47559.44;5072547;28;20165;-83
2023/06/05 07:20:27;;;;;;;27.17;12.60;;;;;;;-141.97;59.53;47726.66;5072515;28;20240;-83
2023/06/05 07:22:52;;;;;;;23.90;13.23;;;;;;;-141.97;58.44;47592.13;5073200;28;20160;-83
2023/06/05 07:25:20;;;;;;;22.13;12.93;;;;;;;-141.97;58.54;47572.91;5073299;28;20156;-82
2023/06/05 07:27:46;;;;;;;21.23;12.47;;;;;;;-141.97;57.76;47565.22;5073196;28;20223;-83
2023/06/05 07:30:12;;;;;;;21.93;12.47;;;;;;;-141.97;57.12;47569.06;5072655;28;20169;-82
2023/06/05 07:32:38;;;;;;;19.87;11.83;;;;;;;-141.97;57.00;47567.13;5072701;28;20806;-83
2023/06/05 07:35:03;;;;;;;23.23;13.17;;;;;;;-141.97;56.82;47572.91;5072617;28;20160;-82
2023/06/05 07:37:29;;;;;;;22.73;12.90;;;;;;;-141.97;56.09;47419.13;5072947;28;20164;-82
2023/06/05 07:39:54;;;;;;;23.20;13.10;;;;;;;-141.97;55.18;47588.28;5073082;28;20200;-83
2023/06/05 07:42:20;;;;;;;22.83;12.73;;;;;;;-141.97;55.44;47574.81;5070787;28;20231;-83
2023/06/05 07:44:45;;;;;;;21.03;12.60;;;;;;;-141.97;55.90;47586.34;5072620;28;20179;-84
2023/06/05 07:47:11;;;;;;;23.50;12.33;;;;;;;-141.97;55.85;47574.81;5071837;28;20536;-84
2023/06/05 07:49:36;;;;;;;21.17;12.90;;;;;;;-141.97;57.14;47503.69;5071564;28;20172;-83
2023/06/05 07:52:02;;;;;;;18.53;11.90;;;;;;;-141.97;56.83;47595.97;5072605;28;20221;-83
2023/06/05 07:54:27;;;;;;;20.70;12.93;;;;;;;-141.97;56.56;47496.00;5071474;28;20172;-83
2023/06/05 07:56:53;;;;;;;22.73;12.80;;;;;;;-141.97;55.71;47530.59;5071288;28;20169;-81
2023/06/05 07:59:24;;;;;;;21.50;12.70;;;;;;;-141.97;55.16;47563.28;5078097;28;20168;-82
2023/06/05 08:01:49;;;;;;;20.47;13.03;;;;;;;-141.97;56.49;47461.41;5098314;28;20172;-81
2023/06/05 08:04:15;;;;;;;20.23;13.10;;;;;;;-141.97;55.15;47574.81;5080743;28;20168;-82
2023/06/05 08:06:41;;;;;;;20.97;12.87;;;;;;;-141.97;54.51;47524.84;5076944;28;20161;-83
2023/06/05 08:09:09;;;;;;;19.93;13.00;;;;;;;-141.97;54.09;47515.22;5076288;28;20166;-83
2023/06/05 08:11:36;;;;;;;21.60;13.83;;;;;;;-141.97;55.25;47751.66;5074225;28;20195;-82
2023/06/05 08:14:03;;;;;;;20.67;13.00;;;;;;;-141.97;54.46;47584.44;5077755;28;20239;-84
2023/06/05 08:16:29;;;;;;;21.23;13.57;;;;;;;-141.97;54.34;47484.47;5075447;28;20541;-83
2023/06/05 08:18:54;;;;;;;22.00;13.13;;;;;;;-141.97;54.08;47511.38;5076229;28;20188;-83
2023/06/05 08:21:20;;;;;;;21.43;13.20;;;;;;;-141.97;53.68;47565.22;5076264;28;20171;-83
2023/06/05 08:23:45;;;;;;;23.97;13.67;;;;;;;-141.97;53.59;47770.88;5077739;28;20179;-82
2023/06/05 08:26:11;;;;;;;25.23;12.77;;;;;;;-141.97;53.05;47768.94;5094113;28;20165;-83
2023/06/05 08:28:41;;;;;;;22.07;12.93;;;;;;;-141.97;52.91;47549.84;5078876;28;20169;-83
2023/06/05 08:31:07;;;;;;;21.43;13.27;;;;;;;-141.97;52.92;47542.16;5076482;28;20165;-82
2023/06/05 08:33:36;;;;;;;20.40;13.33;;;;;;;-141.97;53.15;47680.53;5076390;28;20310;-83
2023/06/05 08:36:03;;;;;;;20.80;14.33;;;;;;;-141.97;53.55;47472.94;5074732;28;20252;-82
2023/06/05 08:38:29;;;;;;;23.63;14.53;;;;;;;-141.97;54.06;47488.31;5075809;28;20169;-83
2023/06/05 08:41:05;;;;;;;23.97;13.33;;;;;;;-141.97;53.88;47463.34;5075386;28;20274;-83
2023/06/05 08:43:31;;;;;;;22.63;14.60;;;;;;;-141.97;53.11;47472.94;5073931;28;20665;-85
2023/06/05 08:45:57;;;;;;;23.77;13.60;;;;;;;-141.97;52.94;47544.06;5075322;28;20179;-83
2023/06/05 08:48:25;;;;;;;25.10;13.73;;;;;;;-141.97;53.26;47542.16;5075687;28;20165;-82
2023/06/05 08:50:51;;;;;;;19.30;12.10;;;;;;;-141.97;52.78;47490.25;5074171;28;20628;-83
2023/06/05 08:53:17;;;;;;;25.67;12.53;;;;;;;-141.97;51.94;47582.50;5075446;28;20192;-83
2023/06/05 08:55:47;;;;;;;19.33;12.10;;;;;;;-141.97;50.75;47503.69;5075439;28;20195;-82
2023/06/05 08:58:13;;;;;;;21.83;12.53;;;;;;;-141.97;49.67;47515.22;5075429;28;20161;-84
2023/06/05 09:00:40;;;;;;;22.70;13.13;;;;;;;-141.97;50.06;47745.88;5075860;28;20167;-82
2023/06/05 09:03:05;;;;;;;19.63;12.97;;;;;;;-141.97;49.84;47526.75;5075189;28;20192;-83
2023/06/05 09:05:32;;;;;;;20.30;10.90;;;;;;;-141.97;49.57;47534.44;5075179;28;20163;-83
2023/06/05 09:07:58;;;;;;;16.30;10.57;;;;;;;-141.97;48.84;47555.59;5075143;28;20636;-84
2023/06/05 09:10:28;;;;;;;19.63;10.82;;;;;;;-141.97;49.12;47536.38;5073631;28;20327;-83
2023/06/05 09:13:02;;;;;;;17.65;10.35;;;;;;;-141.97;49.39;47490.25;5075247;28;20211;-83
2023/06/05 09:15:30;;;;;;;19.48;11.05;;;;;;;-141.97;48.67;47546.00;5075326;28;20642;-83
2023/06/05 09:18:10;;;;;;;15.90;10.27;;;;;;;-141.97;49.20;47549.84;5073960;28;20176;-82
2023/06/05 09:20:41;;;;;;;17.10;10.88;;;;;;;-141.97;49.02;47522.91;5075441;28;20190;-83
2023/06/05 09:23:26;;;;;;;16.70;11.02;;;;;;;-141.97;48.92;47511.38;5076278;28;20158;-83
2023/06/05 09:25:52;;;;;;;19.38;10.68;;;;;;;-141.97;49.04;47476.78;5067912;28;20193;-83
2023/06/05 09:28:18;;;;;;;14.05;9.00;;;;;;;-141.97;48.59;47542.16;5074201;28;20575;-84
2023/06/05 09:30:59;;;;;;;15.75;9.80;;;;;;;-141.97;48.69;47507.53;5074675;28;20194;-84
2023/06/05 09:33:26;;;;;;;16.23;9.55;;;;;;;-141.97;48.21;47526.75;5074378;28;20187;-83
2023/06/05 09:36:05;;;;;;;15.40;8.98;;;;;;;-141.97;47.75;47536.38;5074652;28;20178;-84
2023/06/05 09:38:31;;;;;;;16.58;9.40;;;;;;;-141.97;47.77;47505.63;5074613;28;20172;-83
2023/06/05 09:41:09;;;;;;;13.43;7.57;;;;;;;-141.97;47.73;47492.16;5073731;28;20234;-83
2023/06/05 09:43:36;;;;;;;16.27;6.70;;;;;;;-141.97;47.27;47540.22;5073728;28;20174;-83
2023/06/05 09:46:08;;;;;;;9.57;6.88;;;;;;;-141.97;47.14;47553.69;5073985;28;20534;-83
2023/06/05 09:48:34;;;;;;;11.07;7.10;;;;;;;-141.97;46.54;47663.22;5074750;28;20166;-83
2023/06/05 09:51:11;;;;;;;12.60;6.97;;;;;;;-141.97;46.49;47492.16;5073089;28;20502;-84
2023/06/05 09:53:42;;;;;;;11.95;7.40;;;;;;;-141.97;48.00;47538.28;5074049;28;20232;-83
2023/06/05 09:56:11;;;;;;;10.57;7.10;;;;;;;-141.97;47.05;47513.31;5073914;28;20193;-84
2023/06/05 09:58:37;;;;;;;15.05;7.45;;;;;;;-141.97;46.39;47515.22;5074548;28;20184;-85
2023/06/05 10:01:07;;;;;;;10.05;7.55;;;;;;;-141.97;47.14;47497.94;5085502;28;20174;-85
2023/06/05 10:03:36;;;;;;;10.10;7.10;;;;;;;-141.97;46.85;47492.16;5087452;28;20222;-86
2023/06/05 10:06:06;;;;;;;11.85;7.30;;;;;;;-141.97;46.53;47530.59;5081961;28;20636;-83
2023/06/05 10:08:32;;;;;;;12.60;7.60;;;;;;;-141.97;46.73;47488.31;5072046;28;20245;-84
2023/06/05 10:10:57;;;;;;;13.77;7.25;;;;;;;-141.97;45.60;47342.25;5077528;28;20640;-82
2023/06/05 10:13:23;;;;;;;8.75;6.95;;;;;;;-141.97;45.28;47488.31;5073947;28;20204;-83
2023/06/05 10:15:52;;;;;;;11.00;7.20;;;;;;;-141.97;45.31;47499.84;5076475;28;20168;-83
2023/06/05 10:18:17;;;;;;;8.70;6.57;;;;;;;-141.97;44.48;47476.78;5074733;28;20246;-83
2023/06/05 10:20:46;;;;;;;10.38;6.43;;;;;;;-141.97;44.57;47376.84;5075022;28;20755;-84
2023/06/05 10:23:17;;;;;;;9.05;6.50;;;;;;;-141.97;44.30;47346.09;5088336;28;20178;-81
2023/06/05 10:25:45;;;;;;;10.27;6.38;;;;;;;-141.97;44.51;47446.03;5085102;28;20193;-84
2023/06/05 10:28:13;;;;;;;9.82;6.70;;;;;;;-141.97;44.59;47519.06;5076616;28;20169;-84
2023/06/05 10:30:57;;;;;;;12.40;6.68;;;;;;;-141.97;43.92;47492.16;5075803;28;20621;-83
2023/06/05 10:33:51;;;;;;;13.05;6.72;;;;;;;-141.97;44.53;47515.22;5078890;28;20203;-83
2023/06/05 10:36:39;;;;;;;11.68;7.20;;;;;;;-141.97;46.33;47474.88;5077697;28;20183;-83
2023/06/05 10:39:06;;;;;;;10.05;7.00;;;;;;;-141.97;46.01;47509.47;5077599;28;20176;-83
2023/06/05 10:41:31;;;;;;;8.70;6.40;;;;;;;-141.97;45.71;47442.19;5073964;28;20235;-84
2023/06/05 10:43:57;;;;;;;7.45;6.50;;;;;;;-141.97;45.24;47515.22;5074443;28;20190;-84
2023/06/05 10:46:38;;;;;;;13.48;6.40;;;;;;;-141.97;44.31;47530.59;5077103;28;20156;-85
2023/06/05 10:49:19;;;;;;;7.25;6.22;;;;;;;-141.97;44.39;47496.00;5077929;28;20174;-85
2023/06/05 10:51:48;;;;;;;11.60;5.95;;;;;;;-141.97;43.68;47465.25;5075546;28;20203;-84
2023/06/05 10:54:38;;;;;;;9.38;5.88;;;;;;;-141.97;44.41;47436.44;5078243;28;20177;-84
2023/06/05 10:57:06;;;;;;;8.60;5.75;;;;;;;-141.97;44.51;47488.31;5077636;28;20168;-82
2023/06/05 10:59:39;;;;;;;10.25;6.05;;;;;;;-141.97;43.84;47515.22;5078613;28;20188;-84
2023/06/05 11:02:04;;;;;;;7.78;5.93;;;;;;;-141.97;44.77;47474.88;5081402;28;20178;-84
2023/06/05 11:04:53;;;;;;;7.72;5.35;;;;;;;-141.97;44.41;47519.06;5081905;28;20167;-84
2023/06/05 11:07:20;;;;;;;7.90;5.40;;;;;;;-141.97;44.49;47513.31;5064256;28;20683;-83
2023/06/05 11:10:15;;;;;;;6.75;5.40;;;;;;;-141.97;44.86;47524.84;5060979;28;20200;-83